sensor_id;sensor_type;location;lat;lon;timestamp;P1;durP1;ratioP1;P2;durP2;ratioP2
57155;SDS011;43023;59.928;10.682;2023-09-30T00:00:44;1.85;;;1.27;;
57155;SDS011;43023;59.928;10.682;2023-09-30T00:03:11;1.30;;;0.93;;
57155;SDS011;43023;59.928;10.682;2023-09-30T00:05:37;1.92;;;1.15;;
57155;SDS011;43023;59.928;10.682;2023-09-30T00:08:06;6.47;;;1.50;;
57155;SDS011;43023;59.928;10.682;2023-09-30T00:10:32;1.15;;;1.00;;
57155;SDS011;43023;59.928;10.682;2023-09-30T00:12:58;3.60;;;1.58;;
57155;SDS011;43023;59.928;10.682;2023-09-30T00:15:24;2.10;;;1.30;;
57155;SDS011;43023;59.928;10.682;2023-09-30T00:17:50;1.20;;;1.10;;
57155;SDS011;43023;59.928;10.682;2023-09-30T00:20:16;2.28;;;1.05;;
57155;SDS011;43023;59.928;10.682;2023-09-30T00:22:43;1.90;;;1.40;;
57155;SDS011;43023;59.928;10.682;2023-09-30T00:25:09;1.98;;;1.38;;
57155;SDS011;43023;59.928;10.682;2023-09-30T00:27:35;2.30;;;1.00;;
57155;SDS011;43023;59.928;10.682;2023-09-30T00:30:02;1.90;;;1.13;;
57155;SDS011;43023;59.928;10.682;2023-09-30T00:32:31;2.15;;;1.13;;
57155;SDS011;43023;59.928;10.682;2023-09-30T00:34:58;1.92;;;1.40;;
57155;SDS011;43023;59.928;10.682;2023-09-30T00:37:24;2.38;;;1.00;;
57155;SDS011;43023;59.928;10.682;2023-09-30T00:39:50;3.92;;;1.40;;
57155;SDS011;43023;59.928;10.682;2023-09-30T00:42:16;2.55;;;1.13;;
57155;SDS011;43023;59.928;10.682;2023-09-30T00:44:43;3.47;;;1.65;;
57155;SDS011;43023;59.928;10.682;2023-09-30T00:47:09;1.83;;;1.27;;
57155;SDS011;43023;59.928;10.682;2023-09-30T00:49:36;1.65;;;1.20;;
57155;SDS011;43023;59.928;10.682;2023-09-30T00:52:02;2.35;;;1.42;;
57155;SDS011;43023;59.928;10.682;2023-09-30T00:54:28;2.00;;;1.48;;
57155;SDS011;43023;59.928;10.682;2023-09-30T00:56:56;1.25;;;0.93;;
57155;SDS011;43023;59.928;10.682;2023-09-30T00:59:25;2.10;;;1.40;;
57155;SDS011;43023;59.928;10.682;2023-09-30T01:01:51;2.08;;;1.50;;
57155;SDS011;43023;59.928;10.682;2023-09-30T01:04:18;2.30;;;1.20;;
57155;SDS011;43023;59.928;10.682;2023-09-30T01:06:46;1.52;;;1.20;;
57155;SDS011;43023;59.928;10.682;2023-09-30T01:09:12;2.15;;;1.65;;
57155;SDS011;43023;59.928;10.682;2023-09-30T01:11:39;2.05;;;1.25;;
57155;SDS011;43023;59.928;10.682;2023-09-30T01:14:31;2.15;;;1.40;;
57155;SDS011;43023;59.928;10.682;2023-09-30T01:16:59;4.70;;;1.20;;
57155;SDS011;43023;59.928;10.682;2023-09-30T01:19:26;1.73;;;1.35;;
57155;SDS011;43023;59.928;10.682;2023-09-30T01:21:56;2.55;;;1.13;;
57155;SDS011;43023;59.928;10.682;2023-09-30T01:24:27;1.77;;;1.38;;
57155;SDS011;43023;59.928;10.682;2023-09-30T01:26:53;1.40;;;1.25;;
57155;SDS011;43023;59.928;10.682;2023-09-30T01:29:20;1.88;;;1.45;;
57155;SDS011;43023;59.928;10.682;2023-09-30T01:31:47;3.83;;;1.83;;
57155;SDS011;43023;59.928;10.682;2023-09-30T01:34:13;2.05;;;1.17;;
57155;SDS011;43023;59.928;10.682;2023-09-30T01:36:43;2.10;;;1.45;;
57155;SDS011;43023;59.928;10.682;2023-09-30T01:39:09;3.08;;;1.30;;
57155;SDS011;43023;59.928;10.682;2023-09-30T01:41:36;1.95;;;1.23;;
57155;SDS011;43023;59.928;10.682;2023-09-30T01:44:02;1.60;;;1.30;;
57155;SDS011;43023;59.928;10.682;2023-09-30T01:46:28;1.88;;;1.33;;
57155;SDS011;43023;59.928;10.682;2023-09-30T01:48:54;2.10;;;1.52;;
57155;SDS011;43023;59.928;10.682;2023-09-30T01:51:20;1.58;;;1.00;;
57155;SDS011;43023;59.928;10.682;2023-09-30T01:53:47;2.25;;;1.02;;
57155;SDS011;43023;59.928;10.682;2023-09-30T01:56:13;2.10;;;1.42;;
57155;SDS011;43023;59.928;10.682;2023-09-30T01:58:39;1.55;;;1.00;;
57155;SDS011;43023;59.928;10.682;2023-09-30T02:03:41;1.52;;;1.00;;
57155;SDS011;43023;59.928;10.682;2023-09-30T02:06:08;3.17;;;1.42;;
57155;SDS011;43023;59.928;10.682;2023-09-30T02:08:34;2.88;;;1.20;;
57155;SDS011;43023;59.928;10.682;2023-09-30T02:11:01;3.03;;;1.40;;
57155;SDS011;43023;59.928;10.682;2023-09-30T02:13:28;2.00;;;1.08;;
57155;SDS011;43023;59.928;10.682;2023-09-30T02:15:54;2.33;;;0.77;;
57155;SDS011;43023;59.928;10.682;2023-09-30T02:18:21;1.95;;;1.20;;
57155;SDS011;43023;59.928;10.682;2023-09-30T02:20:48;1.20;;;0.95;;
57155;SDS011;43023;59.928;10.682;2023-09-30T02:23:15;1.50;;;1.00;;
57155;SDS011;43023;59.928;10.682;2023-09-30T02:25:42;3.35;;;1.40;;
57155;SDS011;43023;59.928;10.682;2023-09-30T02:28:08;1.08;;;0.85;;
57155;SDS011;43023;59.928;10.682;2023-09-30T02:30:35;2.30;;;1.23;;
57155;SDS011;43023;59.928;10.682;2023-09-30T02:33:01;2.95;;;1.42;;
57155;SDS011;43023;59.928;10.682;2023-09-30T02:35:29;2.50;;;1.20;;
57155;SDS011;43023;59.928;10.682;2023-09-30T02:37:55;2.92;;;1.27;;
57155;SDS011;43023;59.928;10.682;2023-09-30T02:40:21;2.58;;;1.00;;
57155;SDS011;43023;59.928;10.682;2023-09-30T02:42:49;1.98;;;1.10;;
57155;SDS011;43023;59.928;10.682;2023-09-30T02:45:16;1.65;;;1.42;;
57155;SDS011;43023;59.928;10.682;2023-09-30T02:47:42;1.90;;;1.42;;
57155;SDS011;43023;59.928;10.682;2023-09-30T02:50:09;1.90;;;1.10;;
57155;SDS011;43023;59.928;10.682;2023-09-30T02:52:38;2.10;;;1.42;;
57155;SDS011;43023;59.928;10.682;2023-09-30T02:55:06;1.77;;;0.95;;
57155;SDS011;43023;59.928;10.682;2023-09-30T02:57:32;2.13;;;1.20;;
57155;SDS011;43023;59.928;10.682;2023-09-30T03:00:03;1.35;;;1.10;;
57155;SDS011;43023;59.928;10.682;2023-09-30T03:02:55;2.22;;;1.35;;
57155;SDS011;43023;59.928;10.682;2023-09-30T03:05:21;2.58;;;1.50;;
57155;SDS011;43023;59.928;10.682;2023-09-30T03:07:48;2.30;;;1.40;;
57155;SDS011;43023;59.928;10.682;2023-09-30T03:10:18;0.77;;;0.77;;
57155;SDS011;43023;59.928;10.682;2023-09-30T03:12:49;1.55;;;1.20;;
57155;SDS011;43023;59.928;10.682;2023-09-30T03:15:15;2.00;;;1.10;;
57155;SDS011;43023;59.928;10.682;2023-09-30T03:17:41;1.70;;;0.90;;
57155;SDS011;43023;59.928;10.682;2023-09-30T03:20:08;1.73;;;1.13;;
57155;SDS011;43023;59.928;10.682;2023-09-30T03:22:39;1.90;;;1.25;;
57155;SDS011;43023;59.928;10.682;2023-09-30T03:25:06;2.85;;;0.98;;
57155;SDS011;43023;59.928;10.682;2023-09-30T03:27:35;1.38;;;1.10;;
57155;SDS011;43023;59.928;10.682;2023-09-30T03:30:02;1.67;;;1.05;;
57155;SDS011;43023;59.928;10.682;2023-09-30T03:32:29;2.38;;;1.10;;
57155;SDS011;43023;59.928;10.682;2023-09-30T03:34:55;1.65;;;1.30;;
57155;SDS011;43023;59.928;10.682;2023-09-30T03:37:24;2.05;;;1.58;;
57155;SDS011;43023;59.928;10.682;2023-09-30T03:39:53;1.23;;;1.00;;
57155;SDS011;43023;59.928;10.682;2023-09-30T03:42:19;1.17;;;1.02;;
57155;SDS011;43023;59.928;10.682;2023-09-30T03:44:45;3.38;;;1.40;;
57155;SDS011;43023;59.928;10.682;2023-09-30T03:47:13;2.00;;;1.00;;
57155;SDS011;43023;59.928;10.682;2023-09-30T03:49:39;2.28;;;1.30;;
57155;SDS011;43023;59.928;10.682;2023-09-30T03:52:05;2.45;;;1.48;;
57155;SDS011;43023;59.928;10.682;2023-09-30T03:54:31;3.20;;;1.42;;
57155;SDS011;43023;59.928;10.682;2023-09-30T03:56:57;1.02;;;0.80;;
57155;SDS011;43023;59.928;10.682;2023-09-30T03:59:25;2.03;;;1.20;;
57155;SDS011;43023;59.928;10.682;2023-09-30T04:01:51;2.45;;;1.40;;
57155;SDS011;43023;59.928;10.682;2023-09-30T04:04:20;1.90;;;1.00;;
57155;SDS011;43023;59.928;10.682;2023-09-30T04:06:47;2.15;;;1.23;;
57155;SDS011;43023;59.928;10.682;2023-09-30T04:09:13;2.30;;;1.30;;
57155;SDS011;43023;59.928;10.682;2023-09-30T04:11:41;1.20;;;0.90;;
57155;SDS011;43023;59.928;10.682;2023-09-30T04:14:07;2.05;;;1.17;;
57155;SDS011;43023;59.928;10.682;2023-09-30T04:16:34;1.35;;;1.00;;
57155;SDS011;43023;59.928;10.682;2023-09-30T04:19:00;1.15;;;1.05;;
57155;SDS011;43023;59.928;10.682;2023-09-30T04:21:27;2.65;;;1.17;;
57155;SDS011;43023;59.928;10.682;2023-09-30T04:23:55;1.52;;;0.90;;
57155;SDS011;43023;59.928;10.682;2023-09-30T04:26:21;1.00;;;0.90;;
57155;SDS011;43023;59.928;10.682;2023-09-30T04:28:48;1.75;;;1.00;;
57155;SDS011;43023;59.928;10.682;2023-09-30T04:31:14;1.88;;;1.02;;
57155;SDS011;43023;59.928;10.682;2023-09-30T04:33:41;1.33;;;0.80;;
57155;SDS011;43023;59.928;10.682;2023-09-30T04:36:08;2.05;;;0.95;;
57155;SDS011;43023;59.928;10.682;2023-09-30T04:38:35;1.52;;;1.15;;
57155;SDS011;43023;59.928;10.682;2023-09-30T04:41:04;2.47;;;1.70;;
57155;SDS011;43023;59.928;10.682;2023-09-30T04:43:32;1.40;;;1.08;;
57155;SDS011;43023;59.928;10.682;2023-09-30T04:45:59;3.88;;;1.10;;
57155;SDS011;43023;59.928;10.682;2023-09-30T04:48:25;2.28;;;1.33;;
57155;SDS011;43023;59.928;10.682;2023-09-30T04:50:51;1.75;;;0.82;;
57155;SDS011;43023;59.928;10.682;2023-09-30T04:53:18;2.22;;;1.05;;
57155;SDS011;43023;59.928;10.682;2023-09-30T04:55:44;1.65;;;1.30;;
57155;SDS011;43023;59.928;10.682;2023-09-30T04:58:10;2.85;;;1.00;;
57155;SDS011;43023;59.928;10.682;2023-09-30T05:00:37;1.33;;;1.08;;
57155;SDS011;43023;59.928;10.682;2023-09-30T05:03:04;2.10;;;1.15;;
57155;SDS011;43023;59.928;10.682;2023-09-30T05:05:30;1.45;;;1.05;;
57155;SDS011;43023;59.928;10.682;2023-09-30T05:07:57;3.03;;;1.25;;
57155;SDS011;43023;59.928;10.682;2023-09-30T05:10:24;2.72;;;0.93;;
57155;SDS011;43023;59.928;10.682;2023-09-30T05:12:51;2.67;;;0.90;;
57155;SDS011;43023;59.928;10.682;2023-09-30T05:15:20;1.40;;;1.10;;
57155;SDS011;43023;59.928;10.682;2023-09-30T05:17:46;3.33;;;1.20;;
57155;SDS011;43023;59.928;10.682;2023-09-30T05:20:13;1.70;;;0.85;;
57155;SDS011;43023;59.928;10.682;2023-09-30T05:22:42;2.03;;;0.95;;
57155;SDS011;43023;59.928;10.682;2023-09-30T05:25:14;2.03;;;1.20;;
57155;SDS011;43023;59.928;10.682;2023-09-30T05:27:43;1.95;;;0.90;;
57155;SDS011;43023;59.928;10.682;2023-09-30T05:30:09;1.23;;;1.13;;
57155;SDS011;43023;59.928;10.682;2023-09-30T05:32:41;1.92;;;1.10;;
57155;SDS011;43023;59.928;10.682;2023-09-30T05:35:07;1.10;;;0.90;;
57155;SDS011;43023;59.928;10.682;2023-09-30T05:37:38;2.30;;;1.02;;
57155;SDS011;43023;59.928;10.682;2023-09-30T05:40:05;1.70;;;0.88;;
57155;SDS011;43023;59.928;10.682;2023-09-30T05:42:41;1.48;;;0.80;;
57155;SDS011;43023;59.928;10.682;2023-09-30T05:45:08;2.78;;;1.02;;
57155;SDS011;43023;59.928;10.682;2023-09-30T05:47:35;1.13;;;0.77;;
57155;SDS011;43023;59.928;10.682;2023-09-30T05:50:01;1.27;;;1.10;;
57155;SDS011;43023;59.928;10.682;2023-09-30T05:52:31;0.77;;;0.68;;
57155;SDS011;43023;59.928;10.682;2023-09-30T05:54:58;1.45;;;0.90;;
57155;SDS011;43023;59.928;10.682;2023-09-30T05:57:27;2.42;;;1.00;;
57155;SDS011;43023;59.928;10.682;2023-09-30T05:59:53;1.52;;;1.42;;
57155;SDS011;43023;59.928;10.682;2023-09-30T06:02:20;1.25;;;0.98;;
57155;SDS011;43023;59.928;10.682;2023-09-30T06:04:46;0.88;;;0.70;;
57155;SDS011;43023;59.928;10.682;2023-09-30T06:07:12;2.33;;;1.02;;
57155;SDS011;43023;59.928;10.682;2023-09-30T06:09:38;1.85;;;0.95;;
57155;SDS011;43023;59.928;10.682;2023-09-30T06:12:04;1.60;;;0.85;;
57155;SDS011;43023;59.928;10.682;2023-09-30T06:14:31;1.63;;;1.02;;
57155;SDS011;43023;59.928;10.682;2023-09-30T06:16:57;1.65;;;1.05;;
57155;SDS011;43023;59.928;10.682;2023-09-30T06:19:24;1.80;;;1.05;;
57155;SDS011;43023;59.928;10.682;2023-09-30T06:21:51;0.60;;;0.57;;
57155;SDS011;43023;59.928;10.682;2023-09-30T06:24:17;1.35;;;0.90;;
57155;SDS011;43023;59.928;10.682;2023-09-30T06:26:46;2.28;;;1.27;;
57155;SDS011;43023;59.928;10.682;2023-09-30T06:29:16;1.13;;;1.02;;
57155;SDS011;43023;59.928;10.682;2023-09-30T06:31:42;1.20;;;0.85;;
57155;SDS011;43023;59.928;10.682;2023-09-30T06:34:08;1.40;;;0.80;;
57155;SDS011;43023;59.928;10.682;2023-09-30T06:36:36;1.63;;;1.02;;
57155;SDS011;43023;59.928;10.682;2023-09-30T06:39:03;0.98;;;0.70;;
57155;SDS011;43023;59.928;10.682;2023-09-30T06:41:31;1.45;;;0.90;;
57155;SDS011;43023;59.928;10.682;2023-09-30T06:43:58;1.25;;;0.90;;
57155;SDS011;43023;59.928;10.682;2023-09-30T06:46:24;1.23;;;0.88;;
57155;SDS011;43023;59.928;10.682;2023-09-30T06:48:50;1.10;;;0.70;;
57155;SDS011;43023;59.928;10.682;2023-09-30T06:51:17;3.88;;;1.30;;
57155;SDS011;43023;59.928;10.682;2023-09-30T06:53:43;6.68;;;0.70;;
57155;SDS011;43023;59.928;10.682;2023-09-30T06:56:10;5.03;;;1.38;;
57155;SDS011;43023;59.928;10.682;2023-09-30T06:58:38;3.95;;;0.88;;
57155;SDS011;43023;59.928;10.682;2023-09-30T07:01:04;2.78;;;0.93;;
57155;SDS011;43023;59.928;10.682;2023-09-30T07:03:30;2.47;;;1.10;;
57155;SDS011;43023;59.928;10.682;2023-09-30T07:05:57;1.85;;;1.25;;
57155;SDS011;43023;59.928;10.682;2023-09-30T07:08:26;2.30;;;0.98;;
57155;SDS011;43023;59.928;10.682;2023-09-30T07:10:53;1.60;;;1.02;;
57155;SDS011;43023;59.928;10.682;2023-09-30T07:13:20;2.67;;;1.10;;
57155;SDS011;43023;59.928;10.682;2023-09-30T07:15:46;2.75;;;1.63;;
57155;SDS011;43023;59.928;10.682;2023-09-30T07:18:12;3.08;;;1.30;;
57155;SDS011;43023;59.928;10.682;2023-09-30T07:20:38;2.42;;;1.10;;
57155;SDS011;43023;59.928;10.682;2023-09-30T07:23:04;2.47;;;1.25;;
57155;SDS011;43023;59.928;10.682;2023-09-30T07:25:31;2.85;;;1.00;;
57155;SDS011;43023;59.928;10.682;2023-09-30T07:27:57;3.65;;;0.95;;
57155;SDS011;43023;59.928;10.682;2023-09-30T07:30:25;3.45;;;0.80;;
57155;SDS011;43023;59.928;10.682;2023-09-30T07:32:51;4.10;;;1.38;;
57155;SDS011;43023;59.928;10.682;2023-09-30T07:35:17;4.07;;;0.98;;
57155;SDS011;43023;59.928;10.682;2023-09-30T07:37:43;4.35;;;1.45;;
57155;SDS011;43023;59.928;10.682;2023-09-30T07:40:10;5.15;;;1.13;;
57155;SDS011;43023;59.928;10.682;2023-09-30T07:42:36;3.08;;;1.50;;
57155;SDS011;43023;59.928;10.682;2023-09-30T07:45:02;3.72;;;1.05;;
57155;SDS011;43023;59.928;10.682;2023-09-30T07:47:29;3.55;;;1.10;;
57155;SDS011;43023;59.928;10.682;2023-09-30T07:49:59;4.45;;;1.30;;
57155;SDS011;43023;59.928;10.682;2023-09-30T07:52:27;3.05;;;1.00;;
57155;SDS011;43023;59.928;10.682;2023-09-30T07:54:53;5.75;;;1.30;;
57155;SDS011;43023;59.928;10.682;2023-09-30T07:57:20;4.93;;;1.27;;
57155;SDS011;43023;59.928;10.682;2023-09-30T07:59:46;3.83;;;1.00;;
57155;SDS011;43023;59.928;10.682;2023-09-30T08:02:12;3.15;;;0.85;;
57155;SDS011;43023;59.928;10.682;2023-09-30T08:04:38;3.05;;;1.00;;
57155;SDS011;43023;59.928;10.682;2023-09-30T08:07:04;2.38;;;1.00;;
57155;SDS011;43023;59.928;10.682;2023-09-30T08:09:30;2.08;;;1.13;;
57155;SDS011;43023;59.928;10.682;2023-09-30T08:11:56;1.98;;;1.13;;
57155;SDS011;43023;59.928;10.682;2023-09-30T08:14:23;1.75;;;0.88;;
57155;SDS011;43023;59.928;10.682;2023-09-30T08:16:49;2.08;;;0.98;;
57155;SDS011;43023;59.928;10.682;2023-09-30T08:19:15;6.30;;;1.42;;
57155;SDS011;43023;59.928;10.682;2023-09-30T08:21:41;4.05;;;1.10;;
57155;SDS011;43023;59.928;10.682;2023-09-30T08:24:07;3.90;;;1.25;;
57155;SDS011;43023;59.928;10.682;2023-09-30T08:26:34;1.63;;;0.90;;
57155;SDS011;43023;59.928;10.682;2023-09-30T08:29:00;5.75;;;1.65;;
57155;SDS011;43023;59.928;10.682;2023-09-30T08:31:27;8.25;;;1.88;;
57155;SDS011;43023;59.928;10.682;2023-09-30T08:33:54;4.63;;;1.52;;
57155;SDS011;43023;59.928;10.682;2023-09-30T08:36:20;2.38;;;0.80;;
57155;SDS011;43023;59.928;10.682;2023-09-30T08:38:46;0.98;;;0.80;;
57155;SDS011;43023;59.928;10.682;2023-09-30T08:41:15;3.45;;;0.90;;
57155;SDS011;43023;59.928;10.682;2023-09-30T08:43:51;3.40;;;1.05;;
57155;SDS011;43023;59.928;10.682;2023-09-30T08:46:18;1.25;;;0.80;;
57155;SDS011;43023;59.928;10.682;2023-09-30T08:48:45;1.75;;;0.82;;
57155;SDS011;43023;59.928;10.682;2023-09-30T08:51:12;2.45;;;1.55;;
57155;SDS011;43023;59.928;10.682;2023-09-30T08:53:38;2.40;;;1.00;;
57155;SDS011;43023;59.928;10.682;2023-09-30T08:56:05;1.40;;;0.80;;
57155;SDS011;43023;59.928;10.682;2023-09-30T08:58:35;6.78;;;1.58;;
57155;SDS011;43023;59.928;10.682;2023-09-30T09:01:02;6.00;;;1.48;;
57155;SDS011;43023;59.928;10.682;2023-09-30T09:03:28;6.03;;;1.02;;
57155;SDS011;43023;59.928;10.682;2023-09-30T09:05:54;4.28;;;1.00;;
57155;SDS011;43023;59.928;10.682;2023-09-30T09:08:30;4.13;;;0.90;;
57155;SDS011;43023;59.928;10.682;2023-09-30T09:10:57;3.15;;;1.10;;
57155;SDS011;43023;59.928;10.682;2023-09-30T09:13:24;3.20;;;0.93;;
57155;SDS011;43023;59.928;10.682;2023-09-30T09:16:05;4.38;;;1.33;;
57155;SDS011;43023;59.928;10.682;2023-09-30T09:18:32;2.28;;;0.90;;
57155;SDS011;43023;59.928;10.682;2023-09-30T09:21:08;2.65;;;0.63;;
57155;SDS011;43023;59.928;10.682;2023-09-30T09:23:38;4.65;;;1.75;;
57155;SDS011;43023;59.928;10.682;2023-09-30T09:26:04;5.10;;;1.38;;
57155;SDS011;43023;59.928;10.682;2023-09-30T09:28:36;5.78;;;1.17;;
57155;SDS011;43023;59.928;10.682;2023-09-30T09:31:23;5.75;;;1.33;;
57155;SDS011;43023;59.928;10.682;2023-09-30T09:33:50;6.30;;;1.42;;
57155;SDS011;43023;59.928;10.682;2023-09-30T09:36:17;3.53;;;1.25;;
57155;SDS011;43023;59.928;10.682;2023-09-30T09:38:44;4.88;;;1.13;;
57155;SDS011;43023;59.928;10.682;2023-09-30T09:41:11;4.93;;;1.23;;
57155;SDS011;43023;59.928;10.682;2023-09-30T09:43:37;4.85;;;1.33;;
57155;SDS011;43023;59.928;10.682;2023-09-30T09:46:07;7.55;;;1.30;;
57155;SDS011;43023;59.928;10.682;2023-09-30T09:48:36;7.07;;;1.05;;
57155;SDS011;43023;59.928;10.682;2023-09-30T09:51:02;1.85;;;0.95;;
57155;SDS011;43023;59.928;10.682;2023-09-30T09:53:30;4.35;;;1.20;;
57155;SDS011;43023;59.928;10.682;2023-09-30T09:55:57;3.53;;;1.33;;
57155;SDS011;43023;59.928;10.682;2023-09-30T09:58:26;2.67;;;0.85;;
57155;SDS011;43023;59.928;10.682;2023-09-30T10:00:56;4.13;;;0.80;;
57155;SDS011;43023;59.928;10.682;2023-09-30T10:03:23;5.43;;;1.40;;
57155;SDS011;43023;59.928;10.682;2023-09-30T10:05:49;4.05;;;0.85;;
57155;SDS011;43023;59.928;10.682;2023-09-30T10:08:16;4.15;;;1.17;;
57155;SDS011;43023;59.928;10.682;2023-09-30T10:10:43;5.03;;;1.92;;
57155;SDS011;43023;59.928;10.682;2023-09-30T10:13:49;5.03;;;1.50;;
57155;SDS011;43023;59.928;10.682;2023-09-30T10:15:56;7.93;;;1.50;;
57155;SDS011;43023;59.928;10.682;2023-09-30T10:18:22;7.57;;;2.05;;
57155;SDS011;43023;59.928;10.682;2023-09-30T10:20:48;5.45;;;1.13;;
57155;SDS011;43023;59.928;10.682;2023-09-30T10:25:45;7.10;;;1.50;;
57155;SDS011;43023;59.928;10.682;2023-09-30T10:31:12;7.07;;;1.10;;
57155;SDS011;43023;59.928;10.682;2023-09-30T10:36:28;3.45;;;0.93;;
57155;SDS011;43023;59.928;10.682;2023-09-30T10:38:54;3.65;;;1.20;;
57155;SDS011;43023;59.928;10.682;2023-09-30T10:46:57;6.13;;;1.02;;
57155;SDS011;43023;59.928;10.682;2023-09-30T10:51:50;4.45;;;1.20;;
57155;SDS011;43023;59.928;10.682;2023-09-30T10:54:21;6.32;;;0.80;;
57155;SDS011;43023;59.928;10.682;2023-09-30T10:56:51;2.00;;;0.65;;
57155;SDS011;43023;59.928;10.682;2023-09-30T10:59:21;2.97;;;0.70;;
57155;SDS011;43023;59.928;10.682;2023-09-30T11:01:47;4.07;;;1.35;;
57155;SDS011;43023;59.928;10.682;2023-09-30T11:04:14;8.13;;;1.00;;
57155;SDS011;43023;59.928;10.682;2023-09-30T11:06:41;4.32;;;0.80;;
57155;SDS011;43023;59.928;10.682;2023-09-30T11:09:07;2.60;;;0.82;;
57155;SDS011;43023;59.928;10.682;2023-09-30T11:11:40;1.40;;;0.63;;
57155;SDS011;43023;59.928;10.682;2023-09-30T11:16:42;1.50;;;0.60;;
57155;SDS011;43023;59.928;10.682;2023-09-30T11:19:09;1.73;;;0.55;;
57155;SDS011;43023;59.928;10.682;2023-09-30T11:21:35;1.27;;;0.55;;
57155;SDS011;43023;59.928;10.682;2023-09-30T11:24:01;1.45;;;0.50;;
57155;SDS011;43023;59.928;10.682;2023-09-30T11:26:31;1.15;;;0.68;;
57155;SDS011;43023;59.928;10.682;2023-09-30T11:29:04;2.45;;;0.57;;
57155;SDS011;43023;59.928;10.682;2023-09-30T11:31:30;3.22;;;0.47;;
57155;SDS011;43023;59.928;10.682;2023-09-30T11:34:00;1.63;;;0.88;;
57155;SDS011;43023;59.928;10.682;2023-09-30T11:36:30;4.15;;;0.65;;
57155;SDS011;43023;59.928;10.682;2023-09-30T11:38:56;1.35;;;0.80;;
57155;SDS011;43023;59.928;10.682;2023-09-30T11:41:31;4.70;;;0.60;;
57155;SDS011;43023;59.928;10.682;2023-09-30T11:43:58;4.63;;;0.68;;
57155;SDS011;43023;59.928;10.682;2023-09-30T11:46:30;2.05;;;0.75;;
57155;SDS011;43023;59.928;10.682;2023-09-30T11:49:02;1.35;;;0.52;;
57155;SDS011;43023;59.928;10.682;2023-09-30T11:51:30;3.13;;;0.90;;
57155;SDS011;43023;59.928;10.682;2023-09-30T11:53:56;2.63;;;0.88;;
57155;SDS011;43023;59.928;10.682;2023-09-30T11:56:25;1.88;;;0.57;;
57155;SDS011;43023;59.928;10.682;2023-09-30T11:58:56;1.63;;;0.65;;
57155;SDS011;43023;59.928;10.682;2023-09-30T12:01:23;1.33;;;0.50;;
57155;SDS011;43023;59.928;10.682;2023-09-30T12:03:50;3.33;;;0.70;;
57155;SDS011;43023;59.928;10.682;2023-09-30T12:06:17;4.03;;;0.70;;
57155;SDS011;43023;59.928;10.682;2023-09-30T12:08:43;2.85;;;0.70;;
57155;SDS011;43023;59.928;10.682;2023-09-30T12:11:10;2.65;;;0.90;;
57155;SDS011;43023;59.928;10.682;2023-09-30T12:13:41;1.08;;;0.73;;
57155;SDS011;43023;59.928;10.682;2023-09-30T12:16:09;2.55;;;0.90;;
57155;SDS011;43023;59.928;10.682;2023-09-30T12:18:38;1.25;;;0.73;;
57155;SDS011;43023;59.928;10.682;2023-09-30T12:21:05;2.22;;;0.90;;
57155;SDS011;43023;59.928;10.682;2023-09-30T12:23:33;1.55;;;0.55;;
57155;SDS011;43023;59.928;10.682;2023-09-30T12:26:00;1.33;;;0.50;;
57155;SDS011;43023;59.928;10.682;2023-09-30T12:28:30;1.27;;;0.60;;
57155;SDS011;43023;59.928;10.682;2023-09-30T12:30:57;1.52;;;0.93;;
57155;SDS011;43023;59.928;10.682;2023-09-30T12:33:23;4.30;;;0.70;;
57155;SDS011;43023;59.928;10.682;2023-09-30T12:35:49;1.27;;;0.73;;
57155;SDS011;43023;59.928;10.682;2023-09-30T12:38:16;1.73;;;0.75;;
57155;SDS011;43023;59.928;10.682;2023-09-30T12:40:42;1.27;;;0.50;;
57155;SDS011;43023;59.928;10.682;2023-09-30T12:43:09;2.30;;;0.40;;
57155;SDS011;43023;59.928;10.682;2023-09-30T12:45:35;1.20;;;0.50;;
57155;SDS011;43023;59.928;10.682;2023-09-30T12:48:03;2.95;;;0.70;;
57155;SDS011;43023;59.928;10.682;2023-09-30T12:50:29;0.80;;;0.70;;
57155;SDS011;43023;59.928;10.682;2023-09-30T12:52:56;2.67;;;0.52;;
57155;SDS011;43023;59.928;10.682;2023-09-30T12:55:22;0.52;;;0.40;;
57155;SDS011;43023;59.928;10.682;2023-09-30T12:57:48;1.35;;;0.70;;
57155;SDS011;43023;59.928;10.682;2023-09-30T13:00:14;1.83;;;0.88;;
57155;SDS011;43023;59.928;10.682;2023-09-30T13:02:41;3.10;;;0.70;;
57155;SDS011;43023;59.928;10.682;2023-09-30T13:05:08;2.10;;;0.63;;
57155;SDS011;43023;59.928;10.682;2023-09-30T13:07:34;1.83;;;0.80;;
57155;SDS011;43023;59.928;10.682;2023-09-30T13:10:00;1.67;;;0.45;;
57155;SDS011;43023;59.928;10.682;2023-09-30T13:12:27;1.48;;;0.50;;
57155;SDS011;43023;59.928;10.682;2023-09-30T13:14:53;1.15;;;0.40;;
57155;SDS011;43023;59.928;10.682;2023-09-30T13:17:21;0.82;;;0.45;;
57155;SDS011;43023;59.928;10.682;2023-09-30T13:19:49;0.75;;;0.60;;
57155;SDS011;43023;59.928;10.682;2023-09-30T13:22:16;3.15;;;0.80;;
57155;SDS011;43023;59.928;10.682;2023-09-30T13:24:42;0.40;;;0.30;;
57155;SDS011;43023;59.928;10.682;2023-09-30T13:27:08;1.67;;;0.57;;
57155;SDS011;43023;59.928;10.682;2023-09-30T13:29:34;1.13;;;0.55;;
57155;SDS011;43023;59.928;10.682;2023-09-30T13:32:01;1.00;;;0.50;;
57155;SDS011;43023;59.928;10.682;2023-09-30T13:34:27;2.08;;;0.55;;
57155;SDS011;43023;59.928;10.682;2023-09-30T13:36:54;1.63;;;0.63;;
57155;SDS011;43023;59.928;10.682;2023-09-30T13:39:21;1.38;;;0.40;;
57155;SDS011;43023;59.928;10.682;2023-09-30T13:41:49;2.53;;;0.68;;
57155;SDS011;43023;59.928;10.682;2023-09-30T13:44:15;0.90;;;0.60;;
57155;SDS011;43023;59.928;10.682;2023-09-30T13:46:41;1.23;;;0.60;;
57155;SDS011;43023;59.928;10.682;2023-09-30T13:49:07;0.80;;;0.40;;
57155;SDS011;43023;59.928;10.682;2023-09-30T13:51:34;1.75;;;0.50;;
57155;SDS011;43023;59.928;10.682;2023-09-30T13:54:00;2.55;;;0.60;;
57155;SDS011;43023;59.928;10.682;2023-09-30T13:56:26;1.98;;;0.90;;
57155;SDS011;43023;59.928;10.682;2023-09-30T13:58:52;2.80;;;1.02;;
57155;SDS011;43023;59.928;10.682;2023-09-30T14:01:19;1.70;;;0.50;;
57155;SDS011;43023;59.928;10.682;2023-09-30T14:03:45;2.40;;;0.40;;
57155;SDS011;43023;59.928;10.682;2023-09-30T14:06:14;1.33;;;0.45;;
57155;SDS011;43023;59.928;10.682;2023-09-30T14:08:40;1.13;;;0.52;;
57155;SDS011;43023;59.928;10.682;2023-09-30T14:11:11;0.57;;;0.40;;
57155;SDS011;43023;59.928;10.682;2023-09-30T14:13:37;0.77;;;0.35;;
57155;SDS011;43023;59.928;10.682;2023-09-30T14:16:04;0.45;;;0.25;;
57155;SDS011;43023;59.928;10.682;2023-09-30T14:18:31;0.28;;;0.28;;
57155;SDS011;43023;59.928;10.682;2023-09-30T14:20:58;0.60;;;0.35;;
57155;SDS011;43023;59.928;10.682;2023-09-30T14:23:24;0.73;;;0.40;;
57155;SDS011;43023;59.928;10.682;2023-09-30T14:25:53;0.57;;;0.50;;
57155;SDS011;43023;59.928;10.682;2023-09-30T14:28:21;1.15;;;0.60;;
57155;SDS011;43023;59.928;10.682;2023-09-30T14:30:47;1.20;;;0.25;;
57155;SDS011;43023;59.928;10.682;2023-09-30T14:33:15;1.52;;;0.70;;
57155;SDS011;43023;59.928;10.682;2023-09-30T14:35:42;0.90;;;0.30;;
57155;SDS011;43023;59.928;10.682;2023-09-30T14:38:11;0.65;;;0.35;;
57155;SDS011;43023;59.928;10.682;2023-09-30T14:40:37;1.02;;;0.50;;
57155;SDS011;43023;59.928;10.682;2023-09-30T14:43:07;1.85;;;0.40;;
57155;SDS011;43023;59.928;10.682;2023-09-30T14:45:38;0.88;;;0.32;;
57155;SDS011;43023;59.928;10.682;2023-09-30T14:48:05;1.48;;;0.50;;
57155;SDS011;43023;59.928;10.682;2023-09-30T14:50:31;1.25;;;0.50;;
57155;SDS011;43023;59.928;10.682;2023-09-30T14:52:57;0.55;;;0.40;;
57155;SDS011;43023;59.928;10.682;2023-09-30T14:55:24;1.02;;;0.10;;